sensor_id;sensor_type;location;lat;lon;timestamp;P1;durP1;ratioP1;P2;durP2;ratioP2
37299;SDS011;23184;51.902;12.836;2022-07-23T00:02:21;7.93;;;5.80;;
37299;SDS011;23184;51.902;12.836;2022-07-23T00:04:46;8.82;;;6.00;;
37299;SDS011;23184;51.902;12.836;2022-07-23T00:07:12;11.45;;;6.43;;
37299;SDS011;23184;51.902;12.836;2022-07-23T00:09:37;7.60;;;6.13;;
37299;SDS011;23184;51.902;12.836;2022-07-23T00:12:03;9.70;;;5.93;;
37299;SDS011;23184;51.902;12.836;2022-07-23T00:14:29;9.63;;;5.93;;
37299;SDS011;23184;51.902;12.836;2022-07-23T00:16:54;9.85;;;6.45;;
37299;SDS011;23184;51.902;12.836;2022-07-23T00:19:20;6.82;;;5.53;;
37299;SDS011;23184;51.902;12.836;2022-07-23T00:21:45;9.70;;;5.75;;
37299;SDS011;23184;51.902;12.836;2022-07-23T00:24:11;7.05;;;5.63;;
37299;SDS011;23184;51.902;12.836;2022-07-23T00:26:36;11.60;;;6.45;;
37299;SDS011;23184;51.902;12.836;2022-07-23T00:29:02;12.27;;;6.45;;
37299;SDS011;23184;51.902;12.836;2022-07-23T00:31:27;8.45;;;6.60;;
37299;SDS011;23184;51.902;12.836;2022-07-23T00:33:53;8.85;;;6.30;;
37299;SDS011;23184;51.902;12.836;2022-07-23T00:36:21;11.05;;;6.70;;
37299;SDS011;23184;51.902;12.836;2022-07-23T00:38:50;10.07;;;6.25;;
37299;SDS011;23184;51.902;12.836;2022-07-23T00:41:15;11.40;;;6.25;;
37299;SDS011;23184;51.902;12.836;2022-07-23T00:43:41;10.55;;;6.70;;
37299;SDS011;23184;51.902;12.836;2022-07-23T00:46:08;9.50;;;6.40;;
37299;SDS011;23184;51.902;12.836;2022-07-23T00:48:33;10.45;;;6.40;;
37299;SDS011;23184;51.902;12.836;2022-07-23T00:50:59;7.90;;;6.60;;
37299;SDS011;23184;51.902;12.836;2022-07-23T00:53:24;7.97;;;5.63;;
37299;SDS011;23184;51.902;12.836;2022-07-23T00:55:50;9.88;;;6.28;;
37299;SDS011;23184;51.902;12.836;2022-07-23T00:58:16;9.35;;;6.43;;
37299;SDS011;23184;51.902;12.836;2022-07-23T01:00:42;9.55;;;6.00;;
37299;SDS011;23184;51.902;12.836;2022-07-23T01:03:08;7.70;;;6.00;;
37299;SDS011;23184;51.902;12.836;2022-07-23T01:05:33;8.82;;;6.25;;
37299;SDS011;23184;51.902;12.836;2022-07-23T01:07:59;7.25;;;6.18;;
37299;SDS011;23184;51.902;12.836;2022-07-23T01:10:25;11.30;;;6.60;;
37299;SDS011;23184;51.902;12.836;2022-07-23T01:12:57;13.27;;;6.10;;
37299;SDS011;23184;51.902;12.836;2022-07-23T01:15:23;13.98;;;7.13;;
37299;SDS011;23184;51.902;12.836;2022-07-23T01:17:49;11.75;;;6.60;;
37299;SDS011;23184;51.902;12.836;2022-07-23T01:20:15;11.30;;;6.82;;
37299;SDS011;23184;51.902;12.836;2022-07-23T01:22:40;8.15;;;6.35;;
37299;SDS011;23184;51.902;12.836;2022-07-23T01:25:06;8.13;;;6.55;;
37299;SDS011;23184;51.902;12.836;2022-07-23T01:27:32;6.93;;;6.13;;
37299;SDS011;23184;51.902;12.836;2022-07-23T01:29:59;10.70;;;6.85;;
37299;SDS011;23184;51.902;12.836;2022-07-23T01:32:26;9.38;;;6.10;;
37299;SDS011;23184;51.902;12.836;2022-07-23T01:34:51;8.73;;;6.07;;
37299;SDS011;23184;51.902;12.836;2022-07-23T01:37:17;7.75;;;6.03;;
37299;SDS011;23184;51.902;12.836;2022-07-23T01:39:42;12.55;;;6.57;;
37299;SDS011;23184;51.902;12.836;2022-07-23T01:42:08;10.82;;;6.43;;
37299;SDS011;23184;51.902;12.836;2022-07-23T01:44:33;7.63;;;6.10;;
37299;SDS011;23184;51.902;12.836;2022-07-23T01:46:59;10.73;;;6.03;;
37299;SDS011;23184;51.902;12.836;2022-07-23T01:49:24;9.80;;;7.07;;
37299;SDS011;23184;51.902;12.836;2022-07-23T01:51:50;9.48;;;6.90;;
37299;SDS011;23184;51.902;12.836;2022-07-23T01:54:25;10.60;;;6.80;;
37299;SDS011;23184;51.902;12.836;2022-07-23T01:56:54;9.63;;;6.15;;
37299;SDS011;23184;51.902;12.836;2022-07-23T01:59:20;10.23;;;6.72;;
37299;SDS011;23184;51.902;12.836;2022-07-23T02:01:46;10.40;;;6.50;;
37299;SDS011;23184;51.902;12.836;2022-07-23T02:04:11;10.38;;;6.55;;
37299;SDS011;23184;51.902;12.836;2022-07-23T02:06:37;9.85;;;6.30;;
37299;SDS011;23184;51.902;12.836;2022-07-23T02:09:02;9.57;;;6.22;;
37299;SDS011;23184;51.902;12.836;2022-07-23T02:11:28;8.70;;;6.60;;
37299;SDS011;23184;51.902;12.836;2022-07-23T02:13:53;10.32;;;6.70;;
37299;SDS011;23184;51.902;12.836;2022-07-23T02:16:19;9.93;;;6.93;;
37299;SDS011;23184;51.902;12.836;2022-07-23T02:18:44;12.13;;;7.18;;
37299;SDS011;23184;51.902;12.836;2022-07-23T02:21:11;8.35;;;6.28;;
37299;SDS011;23184;51.902;12.836;2022-07-23T02:23:37;10.15;;;6.93;;
37299;SDS011;23184;51.902;12.836;2022-07-23T02:26:03;10.75;;;6.95;;
37299;SDS011;23184;51.902;12.836;2022-07-23T02:28:29;9.95;;;6.55;;
37299;SDS011;23184;51.902;12.836;2022-07-23T02:30:54;11.88;;;6.82;;
37299;SDS011;23184;51.902;12.836;2022-07-23T02:33:20;10.00;;;6.28;;
37299;SDS011;23184;51.902;12.836;2022-07-23T02:35:45;13.75;;;6.38;;
37299;SDS011;23184;51.902;12.836;2022-07-23T02:38:10;7.28;;;5.50;;
37299;SDS011;23184;51.902;12.836;2022-07-23T02:40:36;8.48;;;6.22;;
37299;SDS011;23184;51.902;12.836;2022-07-23T02:43:01;8.80;;;5.68;;
37299;SDS011;23184;51.902;12.836;2022-07-23T02:45:27;9.65;;;6.10;;
37299;SDS011;23184;51.902;12.836;2022-07-23T02:47:52;9.00;;;5.90;;
37299;SDS011;23184;51.902;12.836;2022-07-23T02:50:18;10.18;;;5.93;;
37299;SDS011;23184;51.902;12.836;2022-07-23T02:52:44;10.35;;;6.70;;
37299;SDS011;23184;51.902;12.836;2022-07-23T02:55:09;9.63;;;6.55;;
37299;SDS011;23184;51.902;12.836;2022-07-23T02:57:35;10.50;;;6.25;;
37299;SDS011;23184;51.902;12.836;2022-07-23T03:03:23;13.02;;;7.03;;
37299;SDS011;23184;51.902;12.836;2022-07-23T03:05:48;11.48;;;7.78;;
37299;SDS011;23184;51.902;12.836;2022-07-23T03:08:14;10.23;;;6.20;;
37299;SDS011;23184;51.902;12.836;2022-07-23T03:10:39;10.77;;;5.93;;
37299;SDS011;23184;51.902;12.836;2022-07-23T03:13:05;9.93;;;6.70;;
37299;SDS011;23184;51.902;12.836;2022-07-23T03:15:30;10.27;;;6.03;;
37299;SDS011;23184;51.902;12.836;2022-07-23T03:17:56;10.05;;;6.38;;
37299;SDS011;23184;51.902;12.836;2022-07-23T03:20:21;11.40;;;6.00;;
37299;SDS011;23184;51.902;12.836;2022-07-23T03:22:46;9.90;;;5.45;;
37299;SDS011;23184;51.902;12.836;2022-07-23T03:25:12;8.60;;;5.85;;
37299;SDS011;23184;51.902;12.836;2022-07-23T03:27:37;10.38;;;5.38;;
37299;SDS011;23184;51.902;12.836;2022-07-23T03:30:03;9.38;;;5.68;;
37299;SDS011;23184;51.902;12.836;2022-07-23T03:32:29;9.23;;;5.65;;
37299;SDS011;23184;51.902;12.836;2022-07-23T03:34:56;8.85;;;5.70;;
37299;SDS011;23184;51.902;12.836;2022-07-23T03:37:22;10.95;;;5.75;;
37299;SDS011;23184;51.902;12.836;2022-07-23T03:39:47;7.55;;;4.90;;
37299;SDS011;23184;51.902;12.836;2022-07-23T03:42:13;8.65;;;5.32;;
37299;SDS011;23184;51.902;12.836;2022-07-23T03:44:38;7.30;;;4.70;;
37299;SDS011;23184;51.902;12.836;2022-07-23T03:47:04;9.50;;;5.38;;
37299;SDS011;23184;51.902;12.836;2022-07-23T03:49:30;7.60;;;4.93;;
37299;SDS011;23184;51.902;12.836;2022-07-23T03:51:56;9.55;;;5.25;;
37299;SDS011;23184;51.902;12.836;2022-07-23T03:54:22;6.68;;;4.78;;
37299;SDS011;23184;51.902;12.836;2022-07-23T03:56:47;8.10;;;4.63;;
37299;SDS011;23184;51.902;12.836;2022-07-23T03:59:13;9.73;;;4.88;;
37299;SDS011;23184;51.902;12.836;2022-07-23T04:01:38;11.50;;;4.90;;
37299;SDS011;23184;51.902;12.836;2022-07-23T04:04:04;7.00;;;4.65;;
37299;SDS011;23184;51.902;12.836;2022-07-23T04:06:29;8.73;;;4.20;;
37299;SDS011;23184;51.902;12.836;2022-07-23T04:08:55;10.77;;;5.30;;
37299;SDS011;23184;51.902;12.836;2022-07-23T04:11:20;8.38;;;4.38;;
37299;SDS011;23184;51.902;12.836;2022-07-23T04:13:46;9.02;;;4.22;;
37299;SDS011;23184;51.902;12.836;2022-07-23T04:16:12;9.38;;;4.30;;
37299;SDS011;23184;51.902;12.836;2022-07-23T04:18:37;8.00;;;3.63;;
37299;SDS011;23184;51.902;12.836;2022-07-23T04:21:03;9.80;;;4.72;;
37299;SDS011;23184;51.902;12.836;2022-07-23T04:23:29;8.15;;;4.00;;
37299;SDS011;23184;51.902;12.836;2022-07-23T04:25:54;9.45;;;3.78;;
37299;SDS011;23184;51.902;12.836;2022-07-23T04:28:20;7.10;;;4.03;;
37299;SDS011;23184;51.902;12.836;2022-07-23T04:30:45;10.15;;;3.83;;
37299;SDS011;23184;51.902;12.836;2022-07-23T04:33:11;9.13;;;3.83;;
37299;SDS011;23184;51.902;12.836;2022-07-23T04:35:36;10.38;;;3.70;;
37299;SDS011;23184;51.902;12.836;2022-07-23T04:38:02;9.27;;;3.90;;
37299;SDS011;23184;51.902;12.836;2022-07-23T04:40:28;7.35;;;3.85;;
37299;SDS011;23184;51.902;12.836;2022-07-23T04:42:54;7.60;;;3.55;;
37299;SDS011;23184;51.902;12.836;2022-07-23T04:45:20;6.10;;;3.72;;
37299;SDS011;23184;51.902;12.836;2022-07-23T04:47:46;7.95;;;3.72;;
37299;SDS011;23184;51.902;12.836;2022-07-23T04:50:11;8.48;;;3.78;;
37299;SDS011;23184;51.902;12.836;2022-07-23T04:52:37;15.25;;;4.00;;
37299;SDS011;23184;51.902;12.836;2022-07-23T04:55:03;9.40;;;3.85;;
37299;SDS011;23184;51.902;12.836;2022-07-23T04:57:29;8.68;;;4.00;;
37299;SDS011;23184;51.902;12.836;2022-07-23T04:59:55;8.80;;;3.90;;
37299;SDS011;23184;51.902;12.836;2022-07-23T05:02:20;8.15;;;4.00;;
37299;SDS011;23184;51.902;12.836;2022-07-23T05:04:46;9.48;;;4.05;;
37299;SDS011;23184;51.902;12.836;2022-07-23T05:07:11;7.35;;;3.88;;
37299;SDS011;23184;51.902;12.836;2022-07-23T05:09:37;9.40;;;4.13;;
37299;SDS011;23184;51.902;12.836;2022-07-23T05:12:02;8.95;;;3.88;;
37299;SDS011;23184;51.902;12.836;2022-07-23T05:14:28;8.00;;;4.28;;
37299;SDS011;23184;51.902;12.836;2022-07-23T05:16:54;9.32;;;4.55;;
37299;SDS011;23184;51.902;12.836;2022-07-23T05:19:19;12.38;;;4.90;;
37299;SDS011;23184;51.902;12.836;2022-07-23T05:21:45;22.45;;;6.20;;
37299;SDS011;23184;51.902;12.836;2022-07-23T05:24:10;20.52;;;6.53;;
37299;SDS011;23184;51.902;12.836;2022-07-23T05:26:36;21.27;;;7.30;;
37299;SDS011;23184;51.902;12.836;2022-07-23T05:29:01;16.67;;;6.95;;
37299;SDS011;23184;51.902;12.836;2022-07-23T05:31:27;14.05;;;6.63;;
37299;SDS011;23184;51.902;12.836;2022-07-23T05:33:52;11.82;;;7.05;;
37299;SDS011;23184;51.902;12.836;2022-07-23T05:36:18;12.73;;;7.28;;
37299;SDS011;23184;51.902;12.836;2022-07-23T05:38:43;23.90;;;8.27;;
37299;SDS011;23184;51.902;12.836;2022-07-23T05:41:09;19.55;;;7.65;;
37299;SDS011;23184;51.902;12.836;2022-07-23T05:43:34;12.73;;;7.00;;
37299;SDS011;23184;51.902;12.836;2022-07-23T05:45:59;15.00;;;7.30;;
37299;SDS011;23184;51.902;12.836;2022-07-23T05:48:25;14.27;;;7.10;;
37299;SDS011;23184;51.902;12.836;2022-07-23T05:50:50;10.90;;;6.93;;
37299;SDS011;23184;51.902;12.836;2022-07-23T05:53:16;15.18;;;7.15;;
37299;SDS011;23184;51.902;12.836;2022-07-23T05:55:41;11.88;;;6.90;;
37299;SDS011;23184;51.902;12.836;2022-07-23T05:58:07;13.60;;;7.43;;
37299;SDS011;23184;51.902;12.836;2022-07-23T06:00:33;15.65;;;7.00;;
37299;SDS011;23184;51.902;12.836;2022-07-23T06:02:59;12.05;;;6.38;;
37299;SDS011;23184;51.902;12.836;2022-07-23T06:05:25;13.43;;;7.30;;
37299;SDS011;23184;51.902;12.836;2022-07-23T06:07:50;11.43;;;5.82;;
37299;SDS011;23184;51.902;12.836;2022-07-23T06:10:16;10.68;;;6.32;;
37299;SDS011;23184;51.902;12.836;2022-07-23T06:12:42;12.63;;;6.57;;
37299;SDS011;23184;51.902;12.836;2022-07-23T06:15:07;10.23;;;5.72;;
37299;SDS011;23184;51.902;12.836;2022-07-23T06:17:34;8.43;;;5.95;;
37299;SDS011;23184;51.902;12.836;2022-07-23T06:19:59;14.05;;;6.03;;
37299;SDS011;23184;51.902;12.836;2022-07-23T06:22:25;8.38;;;6.13;;
37299;SDS011;23184;51.902;12.836;2022-07-23T06:24:50;12.00;;;6.30;;
37299;SDS011;23184;51.902;12.836;2022-07-23T06:27:16;14.00;;;6.90;;
37299;SDS011;23184;51.902;12.836;2022-07-23T06:29:42;10.32;;;6.78;;
37299;SDS011;23184;51.902;12.836;2022-07-23T06:32:08;12.18;;;7.72;;
37299;SDS011;23184;51.902;12.836;2022-07-23T06:34:34;17.02;;;7.63;;
37299;SDS011;23184;51.902;12.836;2022-07-23T06:36:59;11.95;;;7.30;;
37299;SDS011;23184;51.902;12.836;2022-07-23T06:39:25;12.68;;;6.50;;
37299;SDS011;23184;51.902;12.836;2022-07-23T06:41:51;11.43;;;7.63;;
37299;SDS011;23184;51.902;12.836;2022-07-23T06:44:17;12.88;;;7.93;;
37299;SDS011;23184;51.902;12.836;2022-07-23T06:46:43;11.13;;;7.30;;
37299;SDS011;23184;51.902;12.836;2022-07-23T06:49:08;14.43;;;7.63;;
37299;SDS011;23184;51.902;12.836;2022-07-23T06:51:34;12.63;;;7.43;;
37299;SDS011;23184;51.902;12.836;2022-07-23T06:54:00;10.55;;;7.22;;
37299;SDS011;23184;51.902;12.836;2022-07-23T06:56:26;12.88;;;7.78;;
37299;SDS011;23184;51.902;12.836;2022-07-23T06:58:51;11.40;;;7.72;;
37299;SDS011;23184;51.902;12.836;2022-07-23T07:01:17;11.15;;;7.65;;
37299;SDS011;23184;51.902;12.836;2022-07-23T07:03:42;12.23;;;7.40;;
37299;SDS011;23184;51.902;12.836;2022-07-23T07:06:08;14.68;;;7.97;;
37299;SDS011;23184;51.902;12.836;2022-07-23T07:08:34;19.45;;;9.27;;
37299;SDS011;23184;51.902;12.836;2022-07-23T07:10:59;12.18;;;7.88;;
37299;SDS011;23184;51.902;12.836;2022-07-23T07:13:25;11.50;;;7.63;;
37299;SDS011;23184;51.902;12.836;2022-07-23T07:15:50;15.18;;;6.80;;
37299;SDS011;23184;51.902;12.836;2022-07-23T07:18:16;11.80;;;6.93;;
37299;SDS011;23184;51.902;12.836;2022-07-23T07:20:41;12.10;;;7.47;;
37299;SDS011;23184;51.902;12.836;2022-07-23T07:23:07;13.38;;;7.57;;
37299;SDS011;23184;51.902;12.836;2022-07-23T07:25:32;13.50;;;6.70;;
37299;SDS011;23184;51.902;12.836;2022-07-23T07:27:58;15.27;;;7.07;;
37299;SDS011;23184;51.902;12.836;2022-07-23T07:30:23;9.43;;;6.13;;
37299;SDS011;23184;51.902;12.836;2022-07-23T07:32:49;12.48;;;6.32;;
37299;SDS011;23184;51.902;12.836;2022-07-23T07:35:14;6.72;;;5.50;;
37299;SDS011;23184;51.902;12.836;2022-07-23T07:37:40;8.95;;;5.70;;
37299;SDS011;23184;51.902;12.836;2022-07-23T07:40:06;8.60;;;5.85;;
37299;SDS011;23184;51.902;12.836;2022-07-23T07:42:32;9.38;;;6.72;;
37299;SDS011;23184;51.902;12.836;2022-07-23T07:44:57;12.05;;;6.57;;
37299;SDS011;23184;51.902;12.836;2022-07-23T07:47:23;12.45;;;6.53;;
37299;SDS011;23184;51.902;12.836;2022-07-23T07:49:48;11.10;;;6.65;;
37299;SDS011;23184;51.902;12.836;2022-07-23T07:52:14;9.38;;;6.40;;
37299;SDS011;23184;51.902;12.836;2022-07-23T07:54:40;9.20;;;5.82;;
37299;SDS011;23184;51.902;12.836;2022-07-23T07:57:05;10.70;;;6.07;;
37299;SDS011;23184;51.902;12.836;2022-07-23T07:59:31;9.35;;;6.07;;
37299;SDS011;23184;51.902;12.836;2022-07-23T08:01:56;11.32;;;5.60;;
37299;SDS011;23184;51.902;12.836;2022-07-23T08:04:22;10.48;;;5.07;;
37299;SDS011;23184;51.902;12.836;2022-07-23T08:06:47;8.55;;;5.30;;
37299;SDS011;23184;51.902;12.836;2022-07-23T08:09:13;9.30;;;4.30;;
37299;SDS011;23184;51.902;12.836;2022-07-23T08:11:38;8.40;;;4.60;;
37299;SDS011;23184;51.902;12.836;2022-07-23T08:14:04;10.30;;;4.60;;
37299;SDS011;23184;51.902;12.836;2022-07-23T08:16:29;8.45;;;4.00;;
37299;SDS011;23184;51.902;12.836;2022-07-23T08:18:55;8.85;;;4.15;;
37299;SDS011;23184;51.902;12.836;2022-07-23T08:21:20;9.07;;;4.35;;
37299;SDS011;23184;51.902;12.836;2022-07-23T08:23:46;7.28;;;4.25;;
37299;SDS011;23184;51.902;12.836;2022-07-23T08:26:11;7.38;;;4.85;;
37299;SDS011;23184;51.902;12.836;2022-07-23T08:28:37;7.78;;;4.40;;
37299;SDS011;23184;51.902;12.836;2022-07-23T08:31:02;8.63;;;4.90;;
37299;SDS011;23184;51.902;12.836;2022-07-23T08:33:30;8.15;;;5.13;;
37299;SDS011;23184;51.902;12.836;2022-07-23T08:35:56;9.43;;;5.20;;
37299;SDS011;23184;51.902;12.836;2022-07-23T08:38:21;6.13;;;4.60;;
37299;SDS011;23184;51.902;12.836;2022-07-23T08:40:48;7.22;;;4.65;;
37299;SDS011;23184;51.902;12.836;2022-07-23T08:43:16;11.80;;;5.25;;
37299;SDS011;23184;51.902;12.836;2022-07-23T08:45:44;8.18;;;4.82;;
37299;SDS011;23184;51.902;12.836;2022-07-23T08:48:19;8.38;;;5.43;;
37299;SDS011;23184;51.902;12.836;2022-07-23T08:50:50;6.57;;;4.55;;
37299;SDS011;23184;51.902;12.836;2022-07-23T08:53:18;8.88;;;5.75;;
37299;SDS011;23184;51.902;12.836;2022-07-23T08:55:45;7.13;;;5.40;;
37299;SDS011;23184;51.902;12.836;2022-07-23T08:58:14;7.53;;;5.88;;
37299;SDS011;23184;51.902;12.836;2022-07-23T09:00:40;9.02;;;5.78;;
37299;SDS011;23184;51.902;12.836;2022-07-23T09:03:06;9.82;;;5.65;;
37299;SDS011;23184;51.902;12.836;2022-07-23T09:05:32;11.25;;;6.65;;
37299;SDS011;23184;51.902;12.836;2022-07-23T09:08:07;8.98;;;6.18;;
37299;SDS011;23184;51.902;12.836;2022-07-23T09:13:25;10.40;;;6.90;;
37299;SDS011;23184;51.902;12.836;2022-07-23T09:15:55;12.10;;;7.03;;
37299;SDS011;23184;51.902;12.836;2022-07-23T09:18:32;12.02;;;6.65;;
37299;SDS011;23184;51.902;12.836;2022-07-23T09:21:45;9.02;;;6.50;;
37299;SDS011;23184;51.902;12.836;2022-07-23T09:24:03;8.35;;;6.85;;
37299;SDS011;23184;51.902;12.836;2022-07-23T09:26:46;10.30;;;7.32;;
37299;SDS011;23184;51.902;12.836;2022-07-23T09:31:51;14.35;;;7.90;;
37299;SDS011;23184;51.902;12.836;2022-07-23T09:34:25;10.98;;;7.57;;
37299;SDS011;23184;51.902;12.836;2022-07-23T09:36:53;11.35;;;7.03;;
37299;SDS011;23184;51.902;12.836;2022-07-23T09:39:30;14.13;;;7.13;;
37299;SDS011;23184;51.902;12.836;2022-07-23T09:41:57;11.90;;;7.88;;
37299;SDS011;23184;51.902;12.836;2022-07-23T09:44:40;11.88;;;7.47;;
37299;SDS011;23184;51.902;12.836;2022-07-23T09:47:10;12.20;;;7.53;;
37299;SDS011;23184;51.902;12.836;2022-07-23T09:49:35;14.23;;;7.00;;
37299;SDS011;23184;51.902;12.836;2022-07-23T09:52:01;10.43;;;6.78;;
37299;SDS011;23184;51.902;12.836;2022-07-23T09:54:35;9.25;;;6.80;;
37299;SDS011;23184;51.902;12.836;2022-07-23T09:57:11;12.05;;;6.72;;
37299;SDS011;23184;51.902;12.836;2022-07-23T09:59:41;10.82;;;6.05;;
37299;SDS011;23184;51.902;12.836;2022-07-23T10:02:09;10.93;;;6.95;;
37299;SDS011;23184;51.902;12.836;2022-07-23T10:04:36;11.30;;;6.60;;
37299;SDS011;23184;51.902;12.836;2022-07-23T10:07:03;7.13;;;5.70;;
37299;SDS011;23184;51.902;12.836;2022-07-23T10:09:35;10.32;;;6.63;;
37299;SDS011;23184;51.902;12.836;2022-07-23T10:12:03;8.45;;;5.85;;
37299;SDS011;23184;51.902;12.836;2022-07-23T10:14:30;8.57;;;5.78;;
37299;SDS011;23184;51.902;12.836;2022-07-23T10:16:58;8.38;;;5.50;;
37299;SDS011;23184;51.902;12.836;2022-07-23T10:19:23;7.13;;;5.57;;
37299;SDS011;23184;51.902;12.836;2022-07-23T10:21:51;10.80;;;6.28;;
37299;SDS011;23184;51.902;12.836;2022-07-23T10:24:30;6.28;;;4.60;;
37299;SDS011;23184;51.902;12.836;2022-07-23T10:27:04;10.52;;;5.47;;
37299;SDS011;23184;51.902;12.836;2022-07-23T10:29:41;12.15;;;5.82;;
37299;SDS011;23184;51.902;12.836;2022-07-23T10:32:26;7.88;;;5.05;;
37299;SDS011;23184;51.902;12.836;2022-07-23T10:43:28;10.15;;;5.85;;
37299;SDS011;23184;51.902;12.836;2022-07-23T10:45:54;7.70;;;5.25;;
37299;SDS011;23184;51.902;12.836;2022-07-23T10:48:21;9.32;;;5.47;;
37299;SDS011;23184;51.902;12.836;2022-07-23T10:59:31;9.80;;;5.03;;
37299;SDS011;23184;51.902;12.836;2022-07-23T11:04:48;9.00;;;4.90;;
37299;SDS011;23184;51.902;12.836;2022-07-23T11:07:16;7.72;;;5.10;;
37299;SDS011;23184;51.902;12.836;2022-07-23T11:09:42;10.30;;;5.10;;
37299;SDS011;23184;51.902;12.836;2022-07-23T11:17:25;10.45;;;4.80;;
37299;SDS011;23184;51.902;12.836;2022-07-23T11:22:39;5.93;;;4.10;;
37299;SDS011;23184;51.902;12.836;2022-07-23T11:25:12;6.45;;;3.28;;
37299;SDS011;23184;51.902;12.836;2022-07-23T11:27:53;4.82;;;3.40;;
37299;SDS011;23184;51.902;12.836;2022-07-23T11:32:50;6.32;;;4.00;;
37299;SDS011;23184;51.902;12.836;2022-07-23T11:35:21;8.40;;;3.95;;
37299;SDS011;23184;51.902;12.836;2022-07-23T11:37:48;5.78;;;3.63;;
37299;SDS011;23184;51.902;12.836;2022-07-23T11:40:18;8.73;;;3.80;;
37299;SDS011;23184;51.902;12.836;2022-07-23T11:45:30;6.03;;;4.22;;
37299;SDS011;23184;51.902;12.836;2022-07-23T11:47:58;6.60;;;3.90;;
37299;SDS011;23184;51.902;12.836;2022-07-23T11:50:23;9.20;;;4.53;;
37299;SDS011;23184;51.902;12.836;2022-07-23T11:52:50;5.45;;;3.67;;
37299;SDS011;23184;51.902;12.836;2022-07-23T11:55:17;5.70;;;4.35;;
37299;SDS011;23184;51.902;12.836;2022-07-23T11:57:43;6.38;;;3.78;;
37299;SDS011;23184;51.902;12.836;2022-07-23T12:02:47;4.82;;;3.38;;
37299;SDS011;23184;51.902;12.836;2022-07-23T12:05:15;6.72;;;4.63;;
37299;SDS011;23184;51.902;12.836;2022-07-23T12:07:46;8.63;;;4.93;;
37299;SDS011;23184;51.902;12.836;2022-07-23T12:12:44;5.85;;;3.30;;
37299;SDS011;23184;51.902;12.836;2022-07-23T12:15:21;6.22;;;3.75;;
37299;SDS011;23184;51.902;12.836;2022-07-23T12:17:57;5.88;;;4.10;;
37299;SDS011;23184;51.902;12.836;2022-07-23T12:20:27;6.78;;;4.20;;
37299;SDS011;23184;51.902;12.836;2022-07-23T12:23:01;9.70;;;5.40;;
37299;SDS011;23184;51.902;12.836;2022-07-23T12:25:30;6.43;;;5.25;;
37299;SDS011;23184;51.902;12.836;2022-07-23T12:27:58;11.10;;;5.30;;
37299;SDS011;23184;51.902;12.836;2022-07-23T12:30:51;10.82;;;4.80;;
37299;SDS011;23184;51.902;12.836;2022-07-23T12:33:21;9.30;;;4.80;;
37299;SDS011;23184;51.902;12.836;2022-07-23T12:35:52;13.65;;;5.15;;
37299;SDS011;23184;51.902;12.836;2022-07-23T12:38:24;10.20;;;5.35;;
37299;SDS011;23184;51.902;12.836;2022-07-23T12:41:00;8.45;;;4.38;;
37299;SDS011;23184;51.902;12.836;2022-07-23T12:43:30;9.30;;;4.90;;
37299;SDS011;23184;51.902;12.836;2022-07-23T12:46:03;12.20;;;5.60;;
37299;SDS011;23184;51.902;12.836;2022-07-23T12:48:31;10.88;;;5.07;;
37299;SDS011;23184;51.902;12.836;2022-07-23T12:53:44;9.48;;;5.28;;
37299;SDS011;23184;51.902;12.836;2022-07-23T12:56:12;6.75;;;5.28;;
37299;SDS011;23184;51.902;12.836;2022-07-23T12:58:44;9.48;;;5.28;;
37299;SDS011;23184;51.902;12.836;2022-07-23T13:01:21;9.63;;;5.15;;
37299;SDS011;23184;51.902;12.836;2022-07-23T13:03:57;8.23;;;5.20;;
37299;SDS011;23184;51.902;12.836;2022-07-23T13:06:25;10.10;;;5.18;;
37299;SDS011;23184;51.902;12.836;2022-07-23T13:08:52;11.80;;;4.68;;
37299;SDS011;23184;51.902;12.836;2022-07-23T13:11:18;7.18;;;4.78;;
37299;SDS011;23184;51.902;12.836;2022-07-23T13:13:43;6.40;;;3.83;;
37299;SDS011;23184;51.902;12.836;2022-07-23T13:16:09;7.70;;;5.03;;
37299;SDS011;23184;51.902;12.836;2022-07-23T13:18:34;7.60;;;4.75;;
37299;SDS011;23184;51.902;12.836;2022-07-23T13:21:00;7.20;;;4.10;;
37299;SDS011;23184;51.902;12.836;2022-07-23T13:23:26;5.25;;;3.90;;
37299;SDS011;23184;51.902;12.836;2022-07-23T13:25:52;5.80;;;3.80;;
37299;SDS011;23184;51.902;12.836;2022-07-23T13:28:19;9.63;;;4.22;;
37299;SDS011;23184;51.902;12.836;2022-07-23T13:30:46;9.13;;;4.32;;
37299;SDS011;23184;51.902;12.836;2022-07-23T13:33:15;11.43;;;5.30;;
37299;SDS011;23184;51.902;12.836;2022-07-23T13:35:45;10.30;;;5.03;;
37299;SDS011;23184;51.902;12.836;2022-07-23T13:38:10;6.80;;;4.70;;
37299;SDS011;23184;51.902;12.836;2022-07-23T13:40:38;7.47;;;4.50;;
37299;SDS011;23184;51.902;12.836;2022-07-23T13:43:06;9.88;;;4.82;;
37299;SDS011;23184;51.902;12.836;2022-07-23T13:45:33;6.05;;;4.32;;
37299;SDS011;23184;51.902;12.836;2022-07-23T13:47:59;7.00;;;3.70;;
37299;SDS011;23184;51.902;12.836;2022-07-23T13:50:25;9.85;;;4.38;;
37299;SDS011;23184;51.902;12.836;2022-07-23T13:52:50;7.35;;;3.90;;
37299;SDS011;23184;51.902;12.836;2022-07-23T13:55:16;7.13;;;3.83;;
37299;SDS011;23184;51.902;12.836;2022-07-23T13:57:41;6.32;;;3.85;;
37299;SDS011;23184;51.902;12.836;2022-07-23T14:00:07;6.65;;;4.43;;
37299;SDS011;23184;51.902;12.836;2022-07-23T14:02:35;6.90;;;4.15;;
37299;SDS011;23184;51.902;12.836;2022-07-23T14:05:03;8.45;;;4.38;;
37299;SDS011;23184;51.902;12.836;2022-07-23T14:07:33;8.10;;;4.10;;
37299;SDS011;23184;51.902;12.836;2022-07-23T14:09:59;6.00;;;3.80;;
37299;SDS011;23184;51.902;12.836;2022-07-23T14:12:25;6.57;;;3.83;;
37299;SDS011;23184;51.902;12.836;2022-07-23T14:14:51;7.22;;;4.22;;
37299;SDS011;23184;51.902;12.836;2022-07-23T14:17:16;6.65;;;3.80;;
37299;SDS011;23184;51.902;12.836;2022-07-23T14:19:42;6.28;;;3.80;;
37299;SDS011;23184;51.902;12.836;2022-07-23T14:22:08;6.38;;;4.07;;
37299;SDS011;23184;51.902;12.836;2022-07-23T14:24:33;4.68;;;3.40;;
37299;SDS011;23184;51.902;12.836;2022-07-23T14:26:59;7.60;;;4.10;;
37299;SDS011;23184;51.902;12.836;2022-07-23T14:29:26;5.68;;;3.50;;
37299;SDS011;23184;51.902;12.836;2022-07-23T14:31:52;6.65;;;3.67;;
37299;SDS011;23184;51.902;12.836;2022-07-23T14:34:17;5.95;;;3.30;;
37299;SDS011;23184;51.902;12.836;2022-07-23T14:36:43;5.20;;;3.30;;
37299;SDS011;23184;51.902;12.836;2022-07-23T14:39:08;11.05;;;3.30;;
37299;SDS011;23184;51.902;12.836;2022-07-23T14:41:34;5.70;;;3.50;;
37299;SDS011;23184;51.902;12.836;2022-07-23T14:44:00;6.30;;;3.50;;
37299;SDS011;23184;51.902;12.836;2022-07-23T14:46:27;5.30;;;3.33;;
37299;SDS011;23184;51.902;12.836;2022-07-23T14:48:52;5.30;;;3.58;;
37299;SDS011;23184;51.902;12.836;2022-07-23T14:51:18;5.25;;;3.20;;
37299;SDS011;23184;51.902;12.836;2022-07-23T14:53:43;5.95;;;3.47;;
37299;SDS011;23184;51.902;12.836;2022-07-23T14:56:08;4.65;;;3.22;;
37299;SDS011;23184;51.902;12.836;2022-07-23T14:58:34;5.30;;;3.20;;
37299;SDS011;23184;51.902;12.836;2022-07-23T15:01:00;5.28;;;3.50;;
37299;SDS011;23184;51.902;12.836;2022-07-23T15:03:25;5.85;;;3.08;;
37299;SDS011;23184;51.902;12.836;2022-07-23T15:05:50;6.50;;;3.20;;
37299;SDS011;23184;51.902;12.836;2022-07-23T15:08:16;5.28;;;2.90;;
37299;SDS011;23184;51.902;12.836;2022-07-23T15:10:42;4.68;;;2.55;;
37299;SDS011;23184;51.902;12.836;2022-07-23T15:13:07;4.28;;;3.08;;
37299;SDS011;23184;51.902;12.836;2022-07-23T15:15:33;4.38;;;2.97;;
37299;SDS011;23184;51.902;12.836;2022-07-23T15:17:59;9.07;;;3.65;;